Time;durP1;ratioP1;P1;durP2;ratioP2;P2;SDS_P1;SDS_P2;PMS_P1;PMS_P2;Temp;Humidity;BMP_temperature;BMP_pressure;BME280_temperature;BME280_humidity;BME280_pressure;Samples;Min_cycle;Max_cycle;Signal;HPM_P1;HPM_P2
2022/07/30 00:00:54;;;;;;;;;2.67;2.67;;;;;-145.45;100.00;57426.63;5100762;27;45652;-74
2022/07/30 00:03:20;;;;;;;;;2.67;2.67;;;;;-145.45;100.00;57426.63;5100808;27;45302;-74
2022/07/30 00:05:45;;;;;;;;;4.00;4.00;;;;;-145.45;100.00;57426.63;5101046;27;45299;-74
2022/07/30 00:08:11;;;;;;;;;4.00;4.00;;;;;-145.45;100.00;57426.63;5100889;27;45276;-74
2022/07/30 00:10:36;;;;;;;;;2.33;2.33;;;;;-145.45;100.00;57426.63;5082280;27;46935;-74
2022/07/30 00:13:02;;;;;;;;;4.67;4.67;;;;;-145.45;100.00;57426.63;5100646;27;46119;-74
2022/07/30 00:15:27;;;;;;;;;4.00;4.00;;;;;-145.45;100.00;57426.63;5100801;27;45422;-74
2022/07/30 00:17:52;;;;;;;;;3.00;3.00;;;;;-145.45;100.00;57426.63;5100957;27;45278;-74
2022/07/30 00:20:18;;;;;;;;;4.00;4.00;;;;;-145.45;100.00;57426.63;5100901;27;45186;-74
2022/07/30 00:22:43;;;;;;;;;4.67;4.00;;;;;-145.45;100.00;57426.63;5100442;27;45326;-74
2022/07/30 00:25:09;;;;;;;;;4.67;4.67;;;;;-145.45;100.00;57426.63;5100609;27;45398;-74
2022/07/30 00:27:34;;;;;;;;;5.00;3.33;;;;;-145.45;100.00;57426.63;5087519;27;45376;-74
2022/07/30 00:30:01;;;;;;;;;6.67;4.00;;;;;-145.45;100.00;57426.63;5078964;27;45344;-74
2022/07/30 00:32:26;;;;;;;;;4.00;4.00;;;;;-145.45;100.00;57426.63;5079920;28;45389;-74
2022/07/30 00:34:52;;;;;;;;;4.00;4.00;;;;;-145.45;100.00;57426.63;5084805;27;45335;-74
2022/07/30 00:37:17;;;;;;;;;5.00;4.00;;;;;-145.45;100.00;57426.63;5080191;28;45459;-74
2022/07/30 00:39:42;;;;;;;;;4.00;4.00;;;;;-145.45;100.00;57426.63;5079453;28;48284;-74
2022/07/30 00:42:08;;;;;;;;;6.00;4.00;;;;;-145.45;100.00;57426.63;5079929;28;46115;-74
2022/07/30 00:44:33;;;;;;;;;4.00;4.00;;;;;-145.45;100.00;57426.63;5079677;28;45360;-75
2022/07/30 00:46:58;;;;;;;;;5.67;5.00;;;;;-145.45;100.00;57426.63;5080314;28;45383;-74
2022/07/30 00:49:24;;;;;;;;;5.33;4.33;;;;;-145.45;100.00;57426.63;5079225;28;45470;-74
2022/07/30 00:51:51;;;;;;;;;5.00;5.00;;;;;-145.45;100.00;57426.63;5061563;28;48306;-74
2022/07/30 00:54:16;;;;;;;;;7.00;4.33;;;;;-145.45;100.00;57426.63;5079420;28;45179;-74
2022/07/30 00:56:42;;;;;;;;;4.33;4.33;;;;;-145.45;100.00;57426.63;5061649;28;45293;-74
2022/07/30 00:59:08;;;;;;;;;5.33;4.33;;;;;-145.45;100.00;57426.63;5061371;28;47034;-73
2022/07/30 01:01:34;;;;;;;;;4.00;4.00;;;;;-145.45;100.00;57426.63;5079707;28;45790;-74
2022/07/30 01:04:00;;;;;;;;;3.67;3.67;;;;;-145.45;100.00;57426.63;5079460;28;45355;-74
2022/07/30 01:06:25;;;;;;;;;5.67;4.67;;;;;-145.45;100.00;57426.63;5079778;28;45329;-74
2022/07/30 01:08:51;;;;;;;;;3.33;3.33;;;;;-145.45;100.00;57426.63;5060947;28;45818;-74
2022/07/30 01:11:16;;;;;;;;;5.33;5.33;;;;;-145.45;100.00;57426.63;5079484;28;46308;-74
2022/07/30 01:13:43;;;;;;;;;5.00;5.00;;;;;-145.45;100.00;57426.63;5079493;28;45320;-74
2022/07/30 01:16:09;;;;;;;;;6.67;6.67;;;;;-145.45;100.00;57426.63;5079741;27;45434;-74
2022/07/30 01:21:27;;;;;;;;;5.00;4.33;;;;;-145.45;100.00;57426.63;5079530;28;45365;-74
2022/07/30 01:24:00;;;;;;;;;4.00;4.00;;;;;-145.45;100.00;57426.63;5079236;28;45324;-74
2022/07/30 01:26:26;;;;;;;;;6.67;6.00;;;;;-145.45;100.00;57426.63;5079323;28;44786;-73
2022/07/30 01:28:54;;;;;;;;;5.00;5.00;;;;;-145.45;100.00;57426.63;5079290;28;45490;-74
2022/07/30 01:31:20;;;;;;;;;5.00;5.00;;;;;-145.45;100.00;57426.63;5079299;28;45431;-74
2022/07/30 01:33:48;;;;;;;;;8.00;5.33;;;;;-145.45;100.00;57426.63;5080716;27;45391;-74
2022/07/30 01:36:17;;;;;;;;;4.33;3.67;;;;;-145.45;100.00;57426.63;5081991;27;45204;-74
2022/07/30 01:38:44;;;;;;;;;4.00;4.00;;;;;-145.45;100.00;57426.63;5079113;28;45586;-74
2022/07/30 01:41:12;;;;;;;;;5.00;5.00;;;;;-145.45;100.00;57426.63;5080193;27;46157;-74
2022/07/30 01:43:40;;;;;;;;;6.00;6.00;;;;;-145.45;100.00;57426.63;5082834;27;45237;-74
2022/07/30 01:46:07;;;;;;;;;4.67;4.67;;;;;-145.45;100.00;57426.63;5082767;27;45367;-73
2022/07/30 01:48:36;;;;;;;;;5.33;5.00;;;;;-145.45;100.00;57426.63;5082579;27;45552;-74
2022/07/30 01:51:03;;;;;;;;;4.67;4.67;;;;;-145.45;100.00;57426.63;5082334;27;45258;-74
2022/07/30 01:53:32;;;;;;;;;6.33;5.00;;;;;-145.45;100.00;57426.63;5082603;27;45274;-74
2022/07/30 01:56:00;;;;;;;;;6.00;5.67;;;;;-145.45;100.00;57426.63;5082324;28;45312;-74
2022/07/30 01:58:30;;;;;;;;;5.00;5.00;;;;;-145.45;100.00;57426.63;5082565;27;45255;-74
2022/07/30 02:00:59;;;;;;;;;6.00;5.00;;;;;-145.45;100.00;57426.63;5089445;27;46212;-74
2022/07/30 02:03:26;;;;;;;;;5.00;5.00;;;;;-145.45;100.00;57426.63;5102845;27;45299;-74
2022/07/30 02:05:57;;;;;;;;;4.00;4.00;;;;;-145.45;100.00;57426.63;5103136;27;45199;-74
2022/07/30 02:08:43;;;;;;;;;4.67;4.67;;;;;-145.45;100.00;57426.63;5102557;27;45451;-74
2022/07/30 02:11:12;;;;;;;;;8.00;7.00;;;;;-145.45;100.00;57426.63;5102613;27;45315;-74
2022/07/30 02:13:53;;;;;;;;;6.33;5.00;;;;;-145.45;100.00;57426.63;5102633;27;45380;-73
2022/07/30 02:16:33;;;;;;;;;5.00;5.00;;;;;-145.45;100.00;57426.63;5102839;27;45393;-74
2022/07/30 02:19:07;;;;;;;;;6.00;4.33;;;;;-145.45;100.00;57426.63;5084270;27;45990;-73
2022/07/30 02:21:38;;;;;;;;;3.67;3.67;;;;;-145.45;100.00;57426.63;5102512;27;46560;-74
2022/07/30 02:24:09;;;;;;;;;7.67;6.67;;;;;-145.45;100.00;57426.63;5102230;27;45309;-73
2022/07/30 02:26:37;;;;;;;;;5.33;4.67;;;;;-145.45;100.00;57426.63;5097824;27;45288;-74
2022/07/30 02:29:05;;;;;;;;;6.67;4.67;;;;;-145.45;100.00;57426.63;5072706;27;45534;-73
2022/07/30 02:31:32;;;;;;;;;6.00;5.67;;;;;-145.45;100.00;57426.63;5081996;27;45384;-73
2022/07/30 02:34:01;;;;;;;;;5.33;5.33;;;;;-145.45;100.00;57426.63;5085162;27;45249;-73
2022/07/30 02:36:28;;;;;;;;;5.00;5.00;;;;;-145.45;100.00;57426.63;5080312;28;45534;-74
2022/07/30 02:38:57;;;;;;;;;6.00;6.00;;;;;-145.45;100.00;57426.63;5081055;28;45368;-74
2022/07/30 02:41:25;;;;;;;;;5.33;5.33;;;;;-145.45;100.00;57426.63;5063192;28;48179;-74
2022/07/30 02:43:53;;;;;;;;;6.00;5.00;;;;;-145.45;100.00;57426.63;5095406;27;45315;-73
2022/07/30 02:46:21;;;;;;;;;3.00;3.00;;;;;-145.45;100.00;57426.63;5102110;27;45334;-74
2022/07/30 02:48:48;;;;;;;;;6.00;5.00;;;;;-145.45;100.00;57426.63;5101970;27;45295;-74
2022/07/30 02:51:15;;;;;;;;;4.67;4.67;;;;;-145.45;100.00;57426.63;5083305;27;45558;-74
2022/07/30 02:53:44;;;;;;;;;6.33;4.67;;;;;-145.45;100.00;57426.63;5100969;27;45355;-73
2022/07/30 02:56:11;;;;;;;;;5.00;5.00;;;;;-145.45;100.00;57426.63;5102142;27;45363;-73
2022/07/30 02:58:38;;;;;;;;;5.00;5.00;;;;;-145.45;100.00;57426.63;5101953;27;45270;-74
2022/07/30 03:01:05;;;;;;;;;5.33;5.33;;;;;-145.45;100.00;57426.63;5101981;27;45170;-73
2022/07/30 03:03:31;;;;;;;;;5.67;5.67;;;;;-145.45;100.00;57426.63;5101864;27;45491;-74
2022/07/30 03:05:58;;;;;;;;;5.67;4.00;;;;;-145.45;100.00;57426.63;5083557;27;45316;-74
2022/07/30 03:08:25;;;;;;;;;4.67;3.00;;;;;-145.45;100.00;57426.63;5101539;27;45315;-73
2022/07/30 03:10:53;;;;;;;;;4.33;4.33;;;;;-145.45;100.00;57426.63;5082745;27;46866;-73
2022/07/30 03:13:19;;;;;;;;;6.00;6.00;;;;;-145.45;100.00;57426.63;5101699;27;45236;-73
2022/07/30 03:15:48;;;;;;;;;5.33;5.00;;;;;-145.45;100.00;57426.63;5101862;27;45359;-73
2022/07/30 03:18:16;;;;;;;;;4.33;4.33;;;;;-145.45;100.00;57426.63;5083181;27;45860;-73
2022/07/30 03:20:45;;;;;;;;;5.33;4.33;;;;;-145.45;100.00;57426.63;5101512;27;45270;-73
2022/07/30 03:23:15;;;;;;;;;4.33;4.33;;;;;-145.45;100.00;57426.63;5101249;27;45328;-73
2022/07/30 03:25:44;;;;;;;;;4.67;4.67;;;;;-145.45;100.00;57426.63;5101541;27;45375;-73
2022/07/30 03:28:10;;;;;;;;;5.33;5.00;;;;;-145.45;100.00;57426.63;5082393;27;45252;-73
2022/07/30 03:30:36;;;;;;;;;5.00;3.33;;;;;-145.45;100.00;57426.63;5080993;27;45429;-73
2022/07/30 03:33:04;;;;;;;;;6.00;6.00;;;;;-145.45;100.00;57426.63;5080855;27;45356;-74
2022/07/30 03:35:30;;;;;;;;;4.33;3.67;;;;;-145.45;100.00;57426.63;5085997;27;45313;-73
2022/07/30 03:37:56;;;;;;;;;4.67;4.67;;;;;-145.45;100.00;57426.63;5080558;27;45415;-74
2022/07/30 03:40:22;;;;;;;;;3.67;3.67;;;;;-145.45;100.00;57426.63;5080879;28;45348;-73
2022/07/30 03:42:49;;;;;;;;;5.33;5.33;;;;;-145.45;100.00;57426.63;5062504;28;44652;-74
2022/07/30 03:45:15;;;;;;;;;6.67;5.00;;;;;-145.45;100.00;57426.63;5080833;28;45395;-73
2022/07/30 03:47:42;;;;;;;;;5.67;4.67;;;;;-145.45;100.00;57426.63;5080494;28;45244;-73
2022/07/30 03:50:09;;;;;;;;;7.00;7.00;;;;;-145.45;100.00;57426.63;5080848;28;46348;-74
2022/07/30 03:52:39;;;;;;;;;5.00;5.00;;;;;-145.45;100.00;57426.63;5080424;28;45392;-74
2022/07/30 03:55:06;;;;;;;;;5.67;4.67;;;;;-145.45;100.00;57426.63;5080300;28;45241;-74
2022/07/30 03:57:32;;;;;;;;;5.00;4.00;;;;;-145.45;100.00;57426.63;5080252;28;45340;-73
2022/07/30 03:59:57;;;;;;;;;6.33;4.33;;;;;-145.45;100.00;57426.63;5080430;28;46321;-73
2022/07/30 04:02:23;;;;;;;;;4.33;4.33;;;;;-145.45;100.00;57426.63;5080518;27;45403;-73
2022/07/30 04:04:48;;;;;;;;;3.33;3.33;;;;;-145.45;100.00;57426.63;5080529;27;45284;-73
2022/07/30 04:07:13;;;;;;;;;6.00;5.00;;;;;-145.45;100.00;57426.63;5080346;27;45323;-73
2022/07/30 04:09:38;;;;;;;;;5.33;5.33;;;;;-145.45;100.00;57426.63;5070122;28;46958;-74
2022/07/30 04:12:05;;;;;;;;;4.67;4.67;;;;;-145.45;100.00;57426.63;5080178;27;45449;-74
2022/07/30 04:14:40;;;;;;;;;6.00;4.33;;;;;-145.45;100.00;57426.63;5080685;28;45229;-73
2022/07/30 04:17:11;;;;;;;;;4.67;3.67;;;;;-145.45;100.00;57426.63;5080107;28;45456;-74
2022/07/30 04:20:15;;;;;;;;;4.67;4.67;;;;;-145.45;100.00;57426.63;5080265;28;46184;-74
2022/07/30 04:22:41;;;;;;;;;4.33;4.00;;;;;-145.45;100.00;57426.63;5070399;27;45360;-74
2022/07/30 04:25:08;;;;;;;;;5.33;4.67;;;;;-145.45;100.00;57426.63;5100510;27;45411;-74
2022/07/30 04:27:34;;;;;;;;;7.00;4.67;;;;;-145.45;100.00;57426.63;5087581;27;45323;-73
2022/07/30 04:30:00;;;;;;;;;3.67;3.67;;;;;-145.45;100.00;57426.63;5079868;27;45272;-73
2022/07/30 04:32:26;;;;;;;;;5.33;5.33;;;;;-145.45;100.00;57426.63;5080120;28;45339;-73
2022/07/30 04:34:53;;;;;;;;;2.67;2.67;;;;;-145.45;100.00;57426.63;5085023;27;45308;-74
2022/07/30 04:37:24;;;;;;;;;3.33;3.33;;;;;-145.45;100.00;57426.63;5079714;28;45154;-73
2022/07/30 04:39:56;;;;;;;;;5.00;4.00;;;;;-145.45;100.00;57426.63;5079730;27;46178;-73
2022/07/30 04:42:27;;;;;;;;;6.67;6.67;;;;;-145.45;100.00;57426.63;5079795;28;45298;-73
2022/07/30 04:44:53;;;;;;;;;5.67;5.67;;;;;-145.45;100.00;57426.63;5080063;27;45229;-73
2022/07/30 04:47:19;;;;;;;;;4.67;4.67;;;;;-145.45;100.00;57426.63;5061784;28;45526;-73
2022/07/30 04:49:46;;;;;;;;;6.00;5.33;;;;;-145.45;100.00;57426.63;5079882;28;46016;-73
2022/07/30 04:52:13;;;;;;;;;5.00;3.67;;;;;-145.45;100.00;57426.63;5061177;28;45393;-74
2022/07/30 04:54:50;;;;;;;;;6.33;5.00;;;;;-145.45;100.00;57426.63;5079882;28;45320;-73
2022/07/30 04:57:18;;;;;;;;;6.00;6.00;;;;;-145.45;100.00;57426.63;5079591;28;45222;-73
2022/07/30 04:59:43;;;;;;;;;5.33;5.33;;;;;-145.45;100.00;57426.63;5079660;27;46007;-74
2022/07/30 05:02:11;;;;;;;;;4.67;4.67;;;;;-145.45;100.00;57426.63;5079539;28;45270;-73
2022/07/30 05:04:39;;;;;;;;;5.67;5.67;;;;;-145.45;100.00;57426.63;5078877;28;45435;-74
2022/07/30 05:07:05;;;;;;;;;6.67;4.67;;;;;-145.45;100.00;57426.63;5079352;28;45479;-73
2022/07/30 05:09:32;;;;;;;;;6.00;5.67;;;;;-145.45;100.00;57426.63;5079169;28;46282;-73
2022/07/30 05:11:58;;;;;;;;;4.00;4.00;;;;;-145.45;100.00;57426.63;5079451;28;45199;-73
2022/07/30 05:14:24;;;;;;;;;5.00;5.00;;;;;-145.45;100.00;57426.63;5079644;28;45449;-73
2022/07/30 05:16:51;;;;;;;;;4.67;4.33;;;;;-145.45;100.00;57426.63;5082748;27;45253;-73
2022/07/30 05:19:17;;;;;;;;;4.67;4.67;;;;;-145.45;100.00;57426.63;5083047;28;45345;-73
2022/07/30 05:21:43;;;;;;;;;5.33;3.67;;;;;-145.45;100.00;57426.63;5082900;27;45282;-73
2022/07/30 05:24:08;;;;;;;;;3.00;3.00;;;;;-145.45;100.00;57426.63;5082934;27;45296;-73
2022/07/30 05:26:34;;;;;;;;;3.67;3.67;;;;;-145.45;100.00;57426.63;5065449;28;45631;-73
2022/07/30 05:29:00;;;;;;;;;5.33;5.33;;;;;-145.45;100.00;57426.63;5082912;28;45348;-73
2022/07/30 05:31:25;;;;;;;;;5.33;5.33;;;;;-145.45;100.00;57426.63;5095940;27;45669;-73
2022/07/30 05:33:50;;;;;;;;;2.67;2.67;;;;;-145.45;100.00;57426.63;5085146;27;45341;-73
2022/07/30 05:36:16;;;;;;;;;4.00;4.00;;;;;-145.45;100.00;57426.63;5084983;27;45304;-74
2022/07/30 05:38:41;;;;;;;;;4.33;4.33;;;;;-145.45;100.00;57426.63;5082587;28;46164;-73
2022/07/30 05:41:06;;;;;;;;;5.00;5.00;;;;;-145.45;100.00;57426.63;5082627;27;45154;-73
2022/07/30 05:43:32;;;;;;;;;4.33;4.33;;;;;-145.45;100.00;57426.63;5083070;27;45459;-73
2022/07/30 05:45:57;;;;;;;;;6.67;6.67;;;;;-145.45;100.00;57426.63;5082711;27;45383;-73
2022/07/30 05:48:23;;;;;;;;;6.00;6.00;;;;;-145.45;100.00;57426.63;5082843;28;45351;-73
2022/07/30 05:50:48;;;;;;;;;7.00;5.67;;;;;-145.45;100.00;57426.63;5082586;28;44626;-73
2022/07/30 05:53:13;;;;;;;;;8.33;8.00;;;;;-145.45;100.00;57426.63;5082622;27;45557;-73
2022/07/30 05:55:39;;;;;;;;;8.33;8.00;;;;;-145.45;100.00;57426.63;5082509;27;45213;-74
2022/07/30 05:58:04;;;;;;;;;10.33;9.33;;;;;-145.45;100.00;57426.63;5082453;27;45206;-73
2022/07/30 06:00:29;;;;;;;;;10.00;9.67;;;;;-145.45;100.00;57426.63;5082371;27;45259;-73
2022/07/30 06:02:55;;;;;;;;;11.33;8.67;;;;;-145.45;100.00;57426.63;5082625;27;45013;-73
2022/07/30 06:05:20;;;;;;;;;11.67;9.67;;;;;-145.45;100.00;57426.63;5082191;28;45284;-73
2022/07/30 06:07:46;;;;;;;;;9.67;9.67;;;;;-145.45;100.00;57426.63;5082242;27;45584;-73
2022/07/30 06:10:11;;;;;;;;;8.33;8.00;;;;;-145.45;100.00;57426.63;5081171;28;45947;-73
2022/07/30 06:12:36;;;;;;;;;8.67;8.67;;;;;-145.45;100.00;57426.63;5082290;27;45567;-73
2022/07/30 06:15:02;;;;;;;;;8.67;8.67;;;;;-145.45;100.00;57426.63;5081009;27;46384;-73
2022/07/30 06:17:28;;;;;;;;;11.00;8.00;;;;;-145.45;100.00;57426.63;5082310;28;46168;-73
2022/07/30 06:19:53;;;;;;;;;13.33;10.00;;;;;-145.45;100.00;57426.63;5082119;27;45245;-74
2022/07/30 06:22:19;;;;;;;;;12.33;9.00;;;;;-145.45;100.00;57426.63;5070070;28;45423;-73
2022/07/30 06:24:44;;;;;;;;;8.00;8.00;;;;;-145.45;100.00;57426.63;5066752;27;46459;-73
2022/07/30 06:27:10;;;;;;;;;9.33;9.33;;;;;-145.45;100.00;57426.63;5091548;27;45223;-73
2022/07/30 06:29:36;;;;;;;;;10.33;8.00;;;;;-145.45;100.00;57426.63;5081875;27;45302;-73
2022/07/30 06:32:02;;;;;;;;;9.67;8.00;;;;;-145.45;100.00;57426.63;5082245;27;45538;-73
2022/07/30 06:34:27;;;;;;;;;7.00;7.00;;;;;-145.45;100.00;57426.63;5067858;27;46087;-73
2022/07/30 06:36:53;;;;;;;;;8.00;8.00;;;;;-145.45;100.00;57426.63;5081779;27;45372;-73
2022/07/30 06:39:18;;;;;;;;;10.00;9.00;;;;;-145.45;100.00;57426.63;5081562;27;45281;-73
2022/07/30 06:41:44;;;;;;;;;8.00;7.00;;;;;-145.45;100.00;57426.63;5063704;28;45252;-73
2022/07/30 06:44:09;;;;;;;;;8.67;7.67;;;;;-145.45;100.00;57426.63;5081700;27;45400;-73
2022/07/30 06:46:35;;;;;;;;;5.00;5.00;;;;;-145.45;100.00;57426.63;5080812;28;46052;-73
2022/07/30 06:49:01;;;;;;;;;7.33;6.00;;;;;-145.45;100.00;57426.63;5081481;27;45462;-73
2022/07/30 06:51:26;;;;;;;;;8.00;6.00;;;;;-145.45;100.00;57426.63;5082019;28;45292;-73
2022/07/30 06:53:51;;;;;;;;;7.33;6.00;;;;;-145.45;100.00;57426.63;5075193;28;45578;-73
2022/07/30 06:56:16;;;;;;;;;7.67;5.67;;;;;-145.45;100.00;57426.63;5079648;28;55776;-73
2022/07/30 06:58:42;;;;;;;;;6.00;6.00;;;;;-145.45;100.00;57426.63;5081696;27;45450;-73
2022/07/30 07:01:08;;;;;;;;;6.33;6.33;;;;;-145.45;100.00;57426.63;5081945;28;45216;-74
2022/07/30 07:03:33;;;;;;;;;5.00;4.67;;;;;-145.45;100.00;57426.63;5081340;28;45666;-74
2022/07/30 07:05:58;;;;;;;;;6.00;6.00;;;;;-145.45;100.00;57426.63;5081419;27;45303;-74
2022/07/30 07:08:23;;;;;;;;;8.33;6.67;;;;;-145.45;100.00;57426.63;5062811;28;45344;-73
2022/07/30 07:10:49;;;;;;;;;7.67;7.00;;;;;-145.45;100.00;57426.63;5081497;28;45533;-73
2022/07/30 07:13:15;;;;;;;;;8.33;8.33;;;;;-145.45;100.00;57426.63;5081208;27;48324;-74
2022/07/30 07:15:41;;;;;;;;;7.00;5.67;;;;;-145.45;100.00;57426.63;5081303;28;45681;-73
2022/07/30 07:18:06;;;;;;;;;5.75;5.50;;;;;-145.45;100.00;57426.63;5081210;28;45639;-74
2022/07/30 07:20:33;;;;;;;;;6.67;5.00;;;;;-145.45;100.00;57426.63;5063155;28;45447;-74
2022/07/30 07:22:58;;;;;;;;;6.50;5.50;;;;;-145.45;100.00;57426.63;5080955;28;45242;-74
2022/07/30 07:25:24;;;;;;;;;6.00;6.00;;;;;-145.45;100.00;57426.63;5081032;27;45159;-74
2022/07/30 07:27:49;;;;;;;;;5.75;5.75;;;;;-145.45;100.00;57426.63;5081017;28;45252;-73
2022/07/30 07:30:14;;;;;;;;;8.75;7.00;;;;;-145.45;100.00;57426.63;5081324;27;45397;-73
2022/07/30 07:32:40;;;;;;;;;6.00;6.00;;;;;-145.45;100.00;57426.63;5062603;27;46108;-74
2022/07/30 07:35:06;;;;;;;;;6.75;6.75;;;;;-145.45;100.00;57426.63;5085832;27;45565;-73
2022/07/30 07:37:31;;;;;;;;;5.00;5.00;;;;;-145.45;100.00;57426.63;5080456;28;45462;-73
2022/07/30 07:39:56;;;;;;;;;6.50;6.00;;;;;-145.45;100.00;57426.63;5080778;28;45458;-74
2022/07/30 07:42:22;;;;;;;;;7.75;6.00;;;;;-145.45;100.00;57426.63;5080773;28;45489;-74
2022/07/30 07:44:47;;;;;;;;;7.25;6.00;;;;;-145.45;100.00;57426.63;5062538;28;47216;-74
2022/07/30 07:47:13;;;;;;;;;7.75;7.00;;;;;-145.45;100.00;57426.63;5080716;28;45318;-74
2022/07/30 07:49:38;;;;;;;;;6.00;4.75;;;;;-145.45;100.00;57426.63;5081061;27;45335;-74
2022/07/30 07:52:04;;;;;;;;;7.00;7.00;;;;;-145.45;100.00;57426.63;5062166;28;45447;-74
2022/07/30 07:54:29;;;;;;;;;9.00;8.00;;;;;-145.45;100.00;57426.63;5080342;28;45331;-73
2022/07/30 07:56:55;;;;;;;;;7.50;6.00;;;;;-145.45;100.00;57426.63;5080386;28;45340;-74
2022/07/30 07:59:20;;;;;;;;;5.50;5.50;;;;;-145.45;100.00;57426.63;5080712;27;45304;-74
2022/07/30 08:01:46;;;;;;;;;6.00;6.00;;;;;-145.45;100.00;57426.63;5080412;28;45263;-74
2022/07/30 08:04:11;;;;;;;;;5.00;3.75;;;;;-145.45;100.00;57426.63;5080449;28;45182;-74
2022/07/30 08:06:37;;;;;;;;;7.75;5.75;;;;;-145.45;100.00;57426.63;5080278;27;45217;-74
2022/07/30 08:09:02;;;;;;;;;7.25;6.25;;;;;-145.45;100.00;57426.63;5080335;27;45225;-73
2022/07/30 08:11:28;;;;;;;;;6.00;6.00;;;;;-145.45;100.00;57426.63;5080178;27;45452;-74
2022/07/30 08:13:53;;;;;;;;;6.75;6.75;;;;;-145.45;100.00;57426.63;5080022;27;46286;-74
2022/07/30 08:16:18;;;;;;;;;7.00;6.00;;;;;-145.45;100.00;57426.63;5062057;28;45419;-74
2022/07/30 08:18:44;;;;;;;;;7.25;6.75;;;;;-145.45;100.00;57426.63;5080371;28;45222;-74
2022/07/30 08:21:09;;;;;;;;;6.00;6.00;;;;;-145.45;100.00;57426.63;5080147;27;45234;-74
2022/07/30 08:23:35;;;;;;;;;7.00;5.75;;;;;-145.45;100.00;57426.63;5079765;28;45789;-74
2022/07/30 08:26:00;;;;;;;;;5.25;5.25;;;;;-145.45;100.00;57426.63;5080084;28;45269;-73
2022/07/30 08:28:26;;;;;;;;;4.00;4.00;;;;;-145.45;100.00;57426.63;5080282;27;45353;-74
2022/07/30 08:30:52;;;;;;;;;4.25;4.00;;;;;-145.45;100.00;57426.63;5079125;28;45312;-74
2022/07/30 08:33:17;;;;;;;;;6.25;4.75;;;;;-145.45;100.00;57426.63;5084907;27;46769;-74
2022/07/30 08:35:43;;;;;;;;;4.50;4.00;;;;;-145.45;100.00;57426.63;5068425;28;45481;-74
2022/07/30 08:38:08;;;;;;;;;4.25;4.25;;;;;-145.45;100.00;57426.63;5079563;27;45308;-73
2022/07/30 08:40:34;;;;;;;;;4.75;4.75;;;;;-145.45;100.00;57426.63;5079822;27;45280;-73
2022/07/30 08:43:04;;;;;;;;;5.00;4.75;;;;;-145.45;100.00;57426.63;5079835;27;46062;-74
2022/07/30 08:45:31;;;;;;;;;4.80;4.40;;;;;-145.45;100.00;57426.63;5079786;27;45336;-74
2022/07/30 08:47:59;;;;;;;;;4.75;4.75;;;;;-145.45;100.00;57426.63;5080014;27;45396;-74
2022/07/30 08:50:25;;;;;;;;;3.75;3.75;;;;;-145.45;100.00;57426.63;5078895;27;45258;-74
2022/07/30 08:52:54;;;;;;;;;5.25;4.50;;;;;-145.45;100.00;57426.63;5079543;28;46243;-74
2022/07/30 08:55:23;;;;;;;;;4.40;4.00;;;;;-145.45;100.00;57426.63;5079746;28;45225;-74
2022/07/30 08:57:49;;;;;;;;;4.00;4.00;;;;;-145.45;100.00;57426.63;5061316;28;45644;-74
2022/07/30 09:00:15;;;;;;;;;4.00;4.00;;;;;-145.45;100.00;57426.63;5079588;27;45335;-74
2022/07/30 09:02:41;;;;;;;;;3.80;3.80;;;;;-145.45;100.00;57426.63;5079566;28;46303;-74
2022/07/30 09:05:08;;;;;;;;;4.80;4.80;;;;;-145.45;100.00;57426.63;5061390;28;45282;-74
2022/07/30 09:07:33;;;;;;;;;3.20;3.20;;;;;-145.45;100.00;57426.63;5079787;28;45233;-72
2022/07/30 09:09:59;;;;;;;;;5.75;5.00;;;;;-145.45;100.00;57426.63;5079476;28;45479;-72
2022/07/30 09:12:37;;;;;;;;;4.50;4.50;;;;;-145.45;100.00;57426.63;5079391;28;46871;-72
2022/07/30 09:15:18;;;;;;;;;2.80;2.80;;;;;-145.45;100.00;57426.63;5079678;27;45376;-74
2022/07/30 09:17:59;;;;;;;;;6.40;5.60;;;;;-145.45;100.00;57426.63;5079579;28;45241;-74
2022/07/30 09:20:31;;;;;;;;;3.80;3.80;;;;;-145.45;100.00;57426.63;5086626;27;45300;-75
2022/07/30 09:22:59;;;;;;;;;2.00;2.00;;;;;-145.45;100.00;57426.63;5099676;27;45276;-75
2022/07/30 09:25:36;;;;;;;;;2.40;2.40;;;;;-145.45;100.00;57426.63;5073291;28;45378;-74
2022/07/30 09:28:02;;;;;;;;;3.00;3.00;;;;;-145.45;100.00;57426.63;5079703;27;45286;-74
2022/07/30 09:30:49;;;;;;;;;1.60;0.40;;;;;-145.45;100.00;57426.63;5079444;27;45431;-74
2022/07/30 09:33:29;;;;;;;;;3.00;3.00;;;;;-145.45;100.00;57426.63;5079150;28;45461;-74
2022/07/30 09:35:55;;;;;;;;;5.20;5.20;;;;;-145.45;100.00;57426.63;5083863;27;45300;-72
2022/07/30 09:38:22;;;;;;;;;2.80;2.80;;;;;-145.45;100.00;57426.63;5078946;28;45531;-72
2022/07/30 09:40:54;;;;;;;;;5.40;3.60;;;;;-145.45;100.00;57426.63;5079031;28;45272;-72
2022/07/30 09:43:20;;;;;;;;;3.60;3.60;;;;;-145.45;100.00;57426.63;5079158;28;45467;-72
2022/07/30 09:45:56;;;;;;;;;2.25;2.25;;;;;-145.45;100.00;57426.63;5078973;28;45478;-73
2022/07/30 09:48:23;;;;;;;;;3.20;2.40;;;;;-145.45;100.00;57426.63;5078575;28;45446;-72
2022/07/30 09:50:50;;;;;;;;;3.20;3.20;;;;;-145.45;100.00;57426.63;5078859;28;45488;-72
2022/07/30 09:53:16;;;;;;;;;3.00;3.00;;;;;-145.45;100.00;57426.63;5078930;27;46237;-72
2022/07/30 09:55:42;;;;;;;;;3.00;3.00;;;;;-145.45;100.00;57426.63;5078848;28;45315;-72
2022/07/30 09:58:08;;;;;;;;;3.25;3.25;;;;;-145.45;100.00;57426.63;5079404;28;45273;-73
2022/07/30 10:00:35;;;;;;;;;3.00;3.00;;;;;-145.45;100.00;57426.63;5060600;28;45479;-73
2022/07/30 10:03:19;;;;;;;;;5.00;4.00;;;;;-145.45;100.00;57426.63;5063777;28;46054;-73
2022/07/30 10:05:56;;;;;;;;;4.80;4.00;;;;;-145.45;100.00;57426.63;5070556;27;45979;-73
2022/07/30 10:08:46;;;;;;;;;3.00;3.00;;;;;-145.45;100.00;57426.63;5102721;27;45276;-73
2022/07/30 10:11:15;;;;;;;;;4.80;4.80;;;;;-145.45;100.00;57426.63;5090805;27;45266;-73
2022/07/30 10:13:41;;;;;;;;;3.60;3.60;;;;;-145.45;100.00;57426.63;5102414;27;46414;-73
2022/07/30 10:16:07;;;;;;;;;5.80;4.80;;;;;-145.45;100.00;57426.63;5102633;27;45283;-75
2022/07/30 10:18:34;;;;;;;;;4.40;4.20;;;;;-145.45;100.00;57426.63;5084333;27;45388;-73
2022/07/30 10:21:00;;;;;;;;;4.20;4.20;;;;;-145.45;100.00;57426.63;5102539;27;45256;-76
2022/07/30 10:23:28;;;;;;;;;4.00;3.60;;;;;-145.45;100.00;57426.63;5102103;27;45388;-73
2022/07/30 10:25:58;;;;;;;;;3.20;3.20;;;;;-145.45;100.00;57426.63;5083396;27;45285;-73
2022/07/30 10:28:25;;;;;;;;;4.20;4.20;;;;;-145.45;100.00;57426.63;5082367;27;45221;-74
2022/07/30 10:30:53;;;;;;;;;6.20;5.00;;;;;-145.45;100.00;57426.63;5082115;27;45471;-73
2022/07/30 10:33:21;;;;;;;;;3.20;3.20;;;;;-145.45;100.00;57426.63;5081763;27;46332;-73
2022/07/30 10:35:46;;;;;;;;;3.60;3.60;;;;;-145.45;100.00;57426.63;5086827;27;45421;-74
2022/07/30 10:38:14;;;;;;;;;5.00;3.00;;;;;-145.45;100.00;57426.63;5088843;27;45183;-74
2022/07/30 10:41:08;;;;;;;;;5.00;4.60;;;;;-145.45;100.00;57426.63;5101991;27;45578;-74
2022/07/30 10:43:59;;;;;;;;;3.60;3.60;;;;;-145.45;100.00;57426.63;5102256;27;45241;-74
2022/07/30 10:47:02;;;;;;;;;3.00;3.00;;;;;-145.45;100.00;57426.63;5065116;27;45395;-74
2022/07/30 10:49:27;;;;;;;;;2.80;2.60;;;;;-145.45;100.00;57426.63;5056593;27;45354;-74
2022/07/30 10:51:53;;;;;;;;;2.00;2.00;;;;;-145.45;100.00;57426.63;5102038;27;45292;-74
2022/07/30 10:54:40;;;;;;;;;4.40;4.40;;;;;-145.45;100.00;57426.63;5101630;27;45975;-73
2022/07/30 10:57:13;;;;;;;;;4.80;3.00;;;;;-145.45;100.00;57426.63;5100075;27;45289;-74
2022/07/30 10:59:57;;;;;;;;;4.00;4.00;;;;;-145.45;100.00;57426.63;5080232;27;45410;-74
2022/07/30 11:02:27;;;;;;;;;0.20;0.00;;;;;-145.45;100.00;57426.63;5081465;27;45377;-74
2022/07/30 11:05:16;;;;;;;;;4.40;3.40;;;;;-145.45;100.00;57426.63;5063113;28;47389;-74
2022/07/30 11:07:41;;;;;;;;;3.80;2.40;;;;;-145.45;100.00;57426.63;5078057;27;45359;-74
2022/07/30 11:10:34;;;;;;;;;7.00;3.75;;;;;-145.45;100.00;57426.63;5101870;27;45308;-74
2022/07/30 11:13:00;;;;;;;;;3.00;3.00;;;;;-145.45;100.00;57426.63;5100975;27;45184;-74
2022/07/30 11:15:58;;;;;;;;;3.00;3.00;;;;;-145.45;100.00;57426.63;5101594;27;46283;-74